Nuevo Albor Uno — EA8337 — position and weather

sailwx.info

Track history (hours):
 
Tides and Currents Weather Stations Pressure Air Temp Water Temp Dewpoint Dewpoint Depression Visibility Wind Speed Wind Dir Waves Ship Positions

Nuevo Albor Uno

Last reported at 2017-Nov-07 12:32 UTC. Time now 2017-Nov-18 08:33 UTC.
Position N 38°02' W 000°35'.
Warning: this ship's position is 10 days out of date.

Length 23 m.

Type: Fishing. MMSI: 224162840.

Date/timePositionNaut miles runAvg speedWind from/ knotsBaromVisibWave heightAir tempDewpointWater temp
2017-Nov-07 12:32N 38°02' W 000°35'0 2.9
2017-Nov-07 12:23N 38°01' W 000°35'3 2.9
2017-Nov-07 11:17N 37°58' W 000°37'1 2.8
2017-Nov-07 11:00N 37°57' W 000°37'1 2.9
2017-Nov-07 10:30N 37°56' W 000°37'1 2.8
2017-Nov-07 10:00N 37°55' W 000°36'1 2.8
2017-Nov-07 09:30N 37°53' W 000°37'1 2.9
2017-Nov-07 09:00N 37°52' W 000°37'1 1.4
2017-Nov-07 08:30N 37°52' W 000°37'1 2.2
2017-Nov-07 07:59N 37°54' W 000°37'2 3.1
2017-Nov-07 07:29N 37°55' W 000°36'2 3.1
2017-Nov-07 06:44N 37°57' W 000°37'  
2017-Oct-30 05:43N 38°00' W 000°18'  
Track history (hours):
 
Tides and Currents Weather Stations Pressure Air Temp Water Temp Dewpoint Dewpoint Depression Visibility Wind Speed Wind Dir Waves Ship Positions

Nuevo Albor Uno

Last reported at 2017-Nov-07 12:32 UTC. Time now 2017-Nov-18 08:33 UTC.
Position N 38°02' W 000°35'.
Warning: this ship's position is 10 days out of date.

Length 23 m.

Type: Fishing. MMSI: 224162840.

Date/timePositionNaut miles runAvg speedWind from/ knotsBaromVisibWave heightAir tempDewpointWater temp
2017-Nov-07 12:32N 38°02' W 000°35'0 2.9
2017-Nov-07 12:23N 38°01' W 000°35'3 2.9
2017-Nov-07 11:17N 37°58' W 000°37'1 2.8
2017-Nov-07 11:00N 37°57' W 000°37'1 2.9
2017-Nov-07 10:30N 37°56' W 000°37'1 2.8
2017-Nov-07 10:00N 37°55' W 000°36'1 2.8
2017-Nov-07 09:30N 37°53' W 000°37'1 2.9
2017-Nov-07 09:00N 37°52' W 000°37'1 1.4
2017-Nov-07 08:30N 37°52' W 000°37'1 2.2
2017-Nov-07 07:59N 37°54' W 000°37'2 3.1
2017-Nov-07 07:29N 37°55' W 000°36'2 3.1
2017-Nov-07 06:44N 37°57' W 000°37'  
2017-Oct-30 05:43N 38°00' W 000°18'  

Dump ship's entire track history